createdAt,value
2018-05-01T00:02:09.906Z,99056.29
2018-05-01T00:04:39.563Z,99047.52
2018-05-01T00:07:09.170Z,99045.48
2018-05-01T00:09:38.780Z,99054.67
2018-05-01T00:12:08.422Z,99057.88
2018-05-01T00:14:38.050Z,99055.56
2018-05-01T00:17:07.401Z,99048.18
2018-05-01T00:19:37.059Z,99052.20
2018-05-01T00:22:06.677Z,99050.82
2018-05-01T00:24:36.321Z,99048.83
2018-05-01T00:27:05.969Z,99052.03
2018-05-01T00:29:35.597Z,99047.69
2018-05-01T00:34:33.705Z,99061.72
2018-05-01T00:37:03.339Z,99065.05
2018-05-01T00:39:32.959Z,99063.30
2018-05-01T00:42:02.618Z,99068.64
2018-05-01T00:44:31.986Z,99074.03
2018-05-01T00:47:01.600Z,99061.63
2018-05-01T00:49:31.259Z,99070.34
2018-05-01T00:52:00.879Z,99071.00
2018-05-01T00:54:30.155Z,99065.98
2018-05-01T00:56:59.864Z,99070.14
2018-05-01T00:59:29.490Z,99071.08
2018-05-01T01:01:59.139Z,99077.67
2018-05-01T01:04:28.785Z,99071.45
2018-05-01T01:06:58.409Z,99079.66
2018-05-01T01:09:28.054Z,99077.64
2018-05-01T01:11:57.711Z,99079.83
2018-05-01T01:14:27.098Z,99079.37
2018-05-01T01:16:56.748Z,99077.97
2018-05-01T01:19:26.398Z,99085.10
2018-05-01T01:21:56.020Z,99079.56
2018-05-01T01:24:25.694Z,99074.00
2018-05-01T01:26:55.438Z,99057.19
2018-05-01T01:29:25.060Z,99058.04
2018-05-01T01:31:54.130Z,99057.42
2018-05-01T01:34:23.284Z,99070.89
2018-05-01T01:36:51.799Z,99083.36
2018-05-01T01:39:20.318Z,99093.25
2018-05-01T01:41:48.879Z,99105.28
2018-05-01T01:44:17.408Z,99107.08
2018-05-01T01:46:45.915Z,99100.55
2018-05-01T01:49:14.556Z,99100.83
2018-05-01T01:51:43.072Z,99094.55
2018-05-01T01:54:11.602Z,99098.41
2018-05-01T01:56:40.162Z,99093.12
2018-05-01T01:59:08.670Z,99085.75
2018-05-01T02:01:37.188Z,99082.88
2018-05-01T02:04:05.751Z,99081.49
2018-05-01T02:06:34.250Z,99086.46
2018-05-01T02:09:02.759Z,99094.40
2018-05-01T02:11:31.045Z,99095.25
2018-05-01T02:13:59.574Z,99091.27
2018-05-01T02:16:28.093Z,99100.66
2018-05-01T02:18:56.643Z,99103.17
2018-05-01T02:21:25.145Z,99102.22
2018-05-01T02:23:53.381Z,99099.58
2018-05-01T02:26:21.983Z,99104.33
2018-05-01T02:28:50.678Z,99102.77
2018-05-01T02:31:19.188Z,99104.25
2018-05-01T02:33:47.754Z,99101.90
2018-05-01T02:36:16.274Z,99100.41
2018-05-01T02:38:44.792Z,99103.17
2018-05-01T02:41:13.401Z,99094.89
2018-05-01T02:43:42.078Z,99094.58
2018-05-01T02:46:10.590Z,99089.25
2018-05-01T02:48:39.136Z,99094.91
2018-05-01T02:51:07.647Z,99093.89
2018-05-01T02:53:36.232Z,99096.97
2018-05-01T02:56:06.498Z,99106.06
2018-05-01T02:58:36.089Z,99104.44
2018-05-01T03:01:04.648Z,99104.44
2018-05-01T03:03:33.191Z,99096.97
2018-05-01T03:06:01.700Z,99093.09
2018-05-01T03:08:30.211Z,99093.42
2018-05-01T03:10:58.763Z,99085.87
2018-05-01T03:13:27.398Z,99092.34
2018-05-01T03:15:55.912Z,99073.00
2018-05-01T03:18:24.480Z,99072.17
2018-05-01T03:20:52.982Z,99068.61
2018-05-01T03:23:21.487Z,99075.34
2018-05-01T03:25:50.044Z,99078.98
2018-05-01T03:28:18.556Z,99075.73
2018-05-01T03:30:47.083Z,99076.09
2018-05-01T03:33:15.640Z,99080.52
2018-05-01T03:35:44.157Z,99070.16
2018-05-01T03:38:12.668Z,99066.39
2018-05-01T03:40:41.231Z,99068.41
2018-05-01T03:43:09.760Z,99080.16
2018-05-01T03:45:38.280Z,99086.82
2018-05-01T03:48:06.913Z,99082.46
2018-05-01T03:50:35.165Z,99087.03
2018-05-01T03:53:03.677Z,99096.31
2018-05-01T03:55:32.235Z,99101.81
2018-05-01T03:58:00.487Z,99118.03
2018-05-01T04:00:29.005Z,99115.03
2018-05-01T04:02:57.269Z,99132.87
2018-05-01T04:05:25.501Z,99136.14
2018-05-01T04:07:54.016Z,99155.06
2018-05-01T04:10:22.563Z,99158.66
2018-05-01T04:12:51.070Z,99154.89
2018-05-01T04:15:19.307Z,99157.70
2018-05-01T04:17:47.846Z,99173.61
2018-05-01T04:20:16.350Z,99189.59
2018-05-01T04:22:44.855Z,99186.77
2018-05-01T04:25:13.416Z,99194.77
2018-05-01T04:27:41.654Z,99202.88
2018-05-01T04:30:10.164Z,99201.84
2018-05-01T04:32:38.705Z,99197.87
2018-05-01T04:35:07.221Z,99193.74
2018-05-01T04:37:35.736Z,99209.24
2018-05-01T04:40:04.293Z,99199.30
2018-05-01T04:42:32.802Z,99209.71
2018-05-01T04:45:01.322Z,99205.91
2018-05-01T04:47:29.965Z,99209.16
2018-05-01T04:49:58.476Z,99215.59
2018-05-01T04:52:26.983Z,99210.51
2018-05-01T04:54:55.518Z,99210.31
2018-05-01T04:57:24.031Z,99207.75
2018-05-01T04:59:52.552Z,99197.73
2018-05-01T05:02:21.119Z,99191.92
2018-05-01T05:04:49.622Z,99193.36
2018-05-01T05:07:18.122Z,99193.64
2018-05-01T05:09:46.671Z,99187.87
2018-05-01T05:12:15.170Z,99183.14
2018-05-01T05:14:43.671Z,99182.55
2018-05-01T05:17:12.225Z,99176.63
2018-05-01T05:19:41.242Z,99184.52
2018-05-01T05:22:09.771Z,99179.30
2018-05-01T05:24:38.315Z,99182.67
2018-05-01T05:27:06.822Z,99173.91
2018-05-01T05:29:35.337Z,99170.59
2018-05-01T05:32:03.889Z,99147.59
2018-05-01T05:34:32.456Z,99147.95
2018-05-01T05:37:00.974Z,99145.23
2018-05-01T05:39:29.631Z,99149.25
2018-05-01T05:41:58.147Z,99150.23
2018-05-01T05:44:26.663Z,99153.98
2018-05-01T05:46:55.220Z,99163.18
2018-05-01T05:49:23.504Z,99169.81
2018-05-01T05:51:52.009Z,99171.22
2018-05-01T05:54:20.577Z,99175.76
2018-05-01T05:56:49.320Z,99191.74
2018-05-01T05:59:17.826Z,99188.39
2018-05-01T06:01:46.411Z,99190.75
2018-05-01T06:04:14.916Z,99203.52
2018-05-01T06:06:43.452Z,99198.66
2018-05-01T06:09:12.005Z,99202.34
2018-05-01T06:11:40.517Z,99193.64
2018-05-01T06:14:09.018Z,99195.76
2018-05-01T06:16:37.554Z,99190.24
2018-05-01T06:19:06.059Z,99190.63
2018-05-01T06:21:34.558Z,99190.19
2018-05-01T06:24:03.116Z,99184.51
2018-05-01T06:26:31.631Z,99180.47
2018-05-01T06:29:00.140Z,99171.05
2018-05-01T06:31:28.701Z,99161.33
2018-05-01T06:33:57.299Z,99168.04
2018-05-01T06:36:25.824Z,99165.67
2018-05-01T06:38:54.382Z,99165.55
2018-05-01T06:41:22.890Z,99161.63
2018-05-01T06:43:51.412Z,99161.42
2018-05-01T06:46:19.955Z,99156.05
2018-05-01T06:48:48.468Z,99167.91
2018-05-01T06:51:16.986Z,99161.45
2018-05-01T06:53:45.537Z,99161.67
2018-05-01T06:56:14.031Z,99163.19
2018-05-01T06:58:42.530Z,99170.28
2018-05-01T07:01:11.071Z,99170.41
2018-05-01T07:03:39.604Z,99163.59
2018-05-01T07:06:08.107Z,99158.40
2018-05-01T07:08:36.667Z,99160.24
2018-05-01T07:11:05.747Z,99164.69
2018-05-01T07:13:34.855Z,99168.84
2018-05-01T07:16:03.998Z,99177.12
2018-05-01T07:18:33.097Z,99167.80
2018-05-01T07:21:02.176Z,99179.78
2018-05-01T07:23:31.311Z,99178.64
2018-05-01T07:26:00.629Z,99178.28
2018-05-01T07:28:29.736Z,99175.46
2018-05-01T07:30:58.881Z,99175.90
2018-05-01T07:33:27.967Z,99172.38
2018-05-01T07:35:56.795Z,99180.13
2018-05-01T07:38:26.056Z,99185.08
2018-05-01T07:40:55.140Z,99183.49
2018-05-01T07:43:24.249Z,99181.91
2018-05-01T07:45:53.385Z,99184.85
2018-05-01T07:48:22.482Z,99188.31
2018-05-01T07:50:51.588Z,99189.66
2018-05-01T07:53:20.715Z,99188.69
2018-05-01T07:55:49.811Z,99187.38
2018-05-01T07:58:18.910Z,99194.70
2018-05-01T08:00:48.058Z,99199.77
2018-05-01T08:03:17.139Z,99200.25
2018-05-01T08:05:46.232Z,99206.55
2018-05-01T08:08:15.355Z,99219.52
2018-05-01T08:10:43.876Z,99211.91
2018-05-01T08:13:12.383Z,99205.06
2018-05-01T08:15:40.923Z,99210.85
2018-05-01T08:18:09.441Z,99212.75
2018-05-01T08:20:37.955Z,99226.30
2018-05-01T08:23:06.620Z,99226.25
2018-05-01T08:25:35.219Z,99221.30
2018-05-01T08:28:05.144Z,99214.54
2018-05-01T08:30:33.488Z,99214.62
2018-05-01T08:33:02.499Z,99209.30
2018-05-01T08:35:31.046Z,99210.56
2018-05-01T08:37:59.614Z,99211.09
2018-05-01T08:40:28.133Z,99201.58
2018-05-01T08:42:56.660Z,99205.36
2018-05-01T08:45:25.313Z,99198.19
2018-05-01T08:47:53.964Z,99200.86
2018-05-01T08:50:22.467Z,99203.64
2018-05-01T08:55:32.549Z,99206.59
2018-05-01T08:58:01.189Z,99208.55
2018-05-01T09:00:29.699Z,99199.31
2018-05-01T09:02:58.260Z,99199.69
2018-05-01T09:05:26.773Z,99206.27
2018-05-01T09:07:55.312Z,99210.58
2018-05-01T09:10:23.877Z,99218.55
2018-05-01T09:12:52.389Z,99221.02
2018-05-01T09:15:20.918Z,99221.36
2018-05-01T09:17:49.592Z,99229.48
2018-05-01T09:20:17.977Z,99220.34
2018-05-01T09:22:46.475Z,99224.30
2018-05-01T09:25:15.051Z,99229.83
2018-05-01T09:27:43.567Z,99226.55
2018-05-01T09:30:12.075Z,99228.09
2018-05-01T09:32:40.622Z,99226.00
2018-05-01T09:35:09.541Z,99229.84
2018-05-01T09:37:38.834Z,99233.41
2018-05-01T09:40:07.976Z,99232.98
2018-05-01T09:42:36.499Z,99231.43
2018-05-01T09:45:05.644Z,99229.78
2018-05-01T09:47:34.829Z,99223.94
2018-05-01T09:50:04.064Z,99223.98
2018-05-01T09:52:34.256Z,99228.30
2018-05-01T09:55:04.178Z,99217.72
2018-05-01T09:57:33.801Z,99216.84
2018-05-01T10:00:03.485Z,99221.33
2018-05-01T10:02:32.933Z,99218.27
2018-05-01T10:05:02.570Z,99226.61
2018-05-01T10:07:32.187Z,99221.00
2018-05-01T10:10:01.850Z,99221.52
2018-05-01T10:12:31.462Z,99222.31
2018-05-01T10:15:01.075Z,99229.57
2018-05-01T10:17:30.728Z,99233.47
2018-05-01T10:20:00.175Z,99231.41
2018-05-01T10:22:29.919Z,99234.22
2018-05-01T10:24:59.358Z,99240.14
2018-05-01T10:27:29.307Z,99247.42
2018-05-01T10:29:58.929Z,99238.94
2018-05-01T10:32:28.587Z,99239.30
2018-05-01T10:34:58.212Z,99241.58
2018-05-01T10:37:27.827Z,99247.55
2018-05-01T10:39:58.059Z,99247.13
2018-05-01T10:42:27.674Z,99245.36
2018-05-01T10:44:57.311Z,99246.98
2018-05-01T10:47:26.963Z,99247.18
2018-05-01T10:49:56.621Z,99257.91
2018-05-01T10:52:26.215Z,99261.72
2018-05-01T10:54:55.880Z,99258.82
2018-05-01T10:57:26.062Z,99261.09
2018-05-01T10:59:56.293Z,99260.83
2018-05-01T11:02:26.546Z,99265.88
2018-05-01T11:04:56.755Z,99270.22
2018-05-01T11:07:27.009Z,99269.21
2018-05-01T11:09:56.645Z,99264.09
2018-05-01T11:12:26.195Z,99264.92
2018-05-01T11:14:55.855Z,99264.13
2018-05-01T11:17:25.555Z,99264.06
2018-05-01T11:19:55.343Z,99267.61
2018-05-01T11:22:25.013Z,99264.80
2018-05-01T11:24:54.395Z,99270.69
2018-05-01T11:27:24.017Z,99269.80
2018-05-01T11:29:53.687Z,99265.69
2018-05-01T11:32:23.303Z,99277.11
2018-05-01T11:34:53.007Z,99279.77
2018-05-01T11:37:22.680Z,99266.88
2018-05-01T11:39:52.297Z,99259.88
2018-05-01T11:42:22.051Z,99262.14
2018-05-01T11:44:51.799Z,99257.61
2018-05-01T11:47:21.572Z,99269.27
2018-05-01T11:49:51.217Z,99271.53
2018-05-01T11:52:21.448Z,99278.14
2018-05-01T11:54:51.642Z,99263.23
2018-05-01T11:57:21.288Z,99264.13
2018-05-01T11:59:50.928Z,99266.15
2018-05-01T12:02:20.548Z,99264.62
2018-05-01T12:04:50.264Z,99265.84
2018-05-01T12:07:20.043Z,99264.16
2018-05-01T12:09:49.653Z,99264.53
2018-05-01T12:12:19.271Z,99256.70
2018-05-01T12:14:48.935Z,99268.59
2018-05-01T12:17:18.556Z,99266.84
2018-05-01T12:19:48.175Z,99269.29
2018-05-01T12:22:17.862Z,99270.14
2018-05-01T12:24:47.483Z,99260.34
2018-05-01T12:27:17.126Z,99255.78
2018-05-01T12:29:46.787Z,99251.94
2018-05-01T12:32:16.402Z,99261.52
2018-05-01T12:34:46.049Z,99260.23
2018-05-01T12:37:15.724Z,99263.56
2018-05-01T12:39:45.352Z,99268.75
2018-05-01T12:42:14.771Z,99272.61
2018-05-01T12:44:44.175Z,99272.48
2018-05-01T12:47:14.397Z,99273.86
2018-05-01T12:49:44.033Z,99275.23
2018-05-01T12:52:13.706Z,99270.23
2018-05-01T12:54:43.331Z,99259.86
2018-05-01T12:57:13.015Z,99259.61
2018-05-01T12:59:42.643Z,99267.41
2018-05-01T13:02:12.268Z,99272.55
2018-05-01T13:04:41.943Z,99281.45
2018-05-01T13:07:11.732Z,99282.60
2018-05-01T13:09:41.356Z,99289.27
2018-05-01T13:12:11.081Z,99283.17
2018-05-01T13:14:40.691Z,99283.73
2018-05-01T13:17:10.341Z,99277.44
2018-05-01T13:19:40.583Z,99278.97
2018-05-01T13:22:09.619Z,99275.14
2018-05-01T13:24:39.011Z,99281.05
2018-05-01T13:27:08.447Z,99276.68
2018-05-01T13:29:38.073Z,99280.22
2018-05-01T13:32:07.710Z,99288.11
2018-05-01T13:34:37.373Z,99283.86
2018-05-01T13:37:07.000Z,99279.02
2018-05-01T13:39:36.717Z,99279.94
2018-05-01T13:42:06.378Z,99279.74
2018-05-01T13:44:36.030Z,99288.36
2018-05-01T13:47:05.476Z,99288.84
2018-05-01T13:49:35.140Z,99288.36
2018-05-01T13:52:04.256Z,99295.92
2018-05-01T13:54:33.879Z,99300.20
2018-05-01T13:57:03.596Z,99302.14
2018-05-01T13:59:33.386Z,99305.45
2018-05-01T14:02:02.772Z,99312.88
2018-05-01T14:04:32.517Z,99318.78
2018-05-01T14:07:02.275Z,99317.02
2018-05-01T14:09:31.973Z,99320.73
2018-05-01T14:12:01.628Z,99314.67
2018-05-01T14:14:31.254Z,99317.55
2018-05-01T14:17:00.888Z,99318.62
2018-05-01T14:19:30.583Z,99320.19
2018-05-01T14:22:00.194Z,99319.81
2018-05-01T14:24:29.812Z,99329.73
2018-05-01T14:26:59.461Z,99328.77
2018-05-01T14:29:29.089Z,99325.19
2018-05-01T14:31:58.726Z,99325.36
2018-05-01T14:34:28.408Z,99325.59
2018-05-01T14:36:58.028Z,99329.56
2018-05-01T14:39:27.849Z,99331.20
2018-05-01T14:41:57.506Z,99334.36
2018-05-01T14:44:27.124Z,99334.92
2018-05-01T14:46:56.745Z,99337.26
2018-05-01T14:49:26.428Z,99333.00
2018-05-01T14:51:56.647Z,99325.26
2018-05-01T14:54:26.876Z,99331.46
2018-05-01T14:56:57.119Z,99334.69
2018-05-01T14:59:27.083Z,99323.33
2018-05-01T15:01:57.296Z,99329.69
2018-05-01T15:04:27.531Z,99336.77
2018-05-01T15:09:35.185Z,99331.93
2018-05-01T15:12:05.370Z,99335.00
2018-05-01T15:14:35.138Z,99337.26
2018-05-01T15:17:05.408Z,99338.70
2018-05-01T15:19:35.027Z,99328.23
2018-05-01T15:22:04.668Z,99335.60
2018-05-01T15:24:34.342Z,99330.63
2018-05-01T15:27:03.495Z,99330.07
2018-05-01T15:29:33.119Z,99333.61
2018-05-01T15:32:02.770Z,99331.76
2018-05-01T15:34:32.478Z,99331.17
2018-05-01T15:37:02.104Z,99334.95
2018-05-01T15:39:31.785Z,99335.52
2018-05-01T15:42:01.419Z,99332.14
2018-05-01T15:44:31.058Z,99327.47
2018-05-01T15:47:00.714Z,99331.63
2018-05-01T15:49:30.358Z,99330.14
2018-05-01T15:52:00.073Z,99323.37
2018-05-01T15:54:29.728Z,99328.91
2018-05-01T15:56:59.363Z,99322.41
2018-05-01T15:59:28.982Z,99318.94
2018-05-01T16:01:58.629Z,99321.03
2018-05-01T16:04:28.029Z,99322.80
2018-05-01T16:06:57.656Z,99320.72
2018-05-01T16:09:27.314Z,99322.49
2018-05-01T16:11:56.960Z,99311.39
2018-05-01T16:14:26.338Z,99308.39
2018-05-01T16:16:55.759Z,99303.33
2018-05-01T16:19:25.152Z,99310.84
2018-05-01T16:21:54.768Z,99305.42
2018-05-01T16:24:25.032Z,99303.12
2018-05-01T16:26:54.689Z,99299.75
2018-05-01T16:29:24.079Z,99296.78
2018-05-01T16:31:53.735Z,99296.17
2018-05-01T16:34:23.346Z,99300.27
2018-05-01T16:36:52.991Z,99288.66
2018-05-01T16:39:22.701Z,99293.73
2018-05-01T16:41:52.374Z,99292.23
2018-05-01T16:44:22.030Z,99295.92
2018-05-01T16:46:51.696Z,99296.73
2018-05-01T16:49:21.317Z,99290.63
2018-05-01T16:51:50.950Z,99295.72
2018-05-01T16:54:20.608Z,99294.95
2018-05-01T16:56:50.241Z,99299.48
2018-05-01T16:59:20.153Z,99300.41
2018-05-01T17:01:49.824Z,99297.08
2018-05-01T17:04:19.441Z,99297.16
2018-05-01T17:06:49.318Z,99303.77
2018-05-01T17:09:18.978Z,99300.76
2018-05-01T17:11:48.616Z,99299.37
2018-05-01T17:14:18.284Z,99321.95
2018-05-01T17:16:47.947Z,99312.98
2018-05-01T17:19:17.418Z,99312.81
2018-05-01T17:21:47.040Z,99313.02
2018-05-01T17:24:16.474Z,99321.09
2018-05-01T17:26:46.093Z,99325.48
2018-05-01T17:29:16.263Z,99333.20
2018-05-01T17:31:46.069Z,99335.59
2018-05-01T17:34:15.703Z,99337.36
2018-05-01T17:36:45.350Z,99339.35
2018-05-01T17:39:15.136Z,99345.13
2018-05-01T17:41:44.760Z,99350.12
2018-05-01T17:44:14.374Z,99353.75
2018-05-01T17:46:44.209Z,99351.16
2018-05-01T17:49:14.063Z,99355.52
2018-05-01T17:51:43.811Z,99362.59
2018-05-01T17:54:13.482Z,99366.70
2018-05-01T17:56:43.096Z,99374.69
2018-05-01T17:59:12.744Z,99377.53
2018-05-01T18:01:42.500Z,99374.00
2018-05-01T18:04:12.110Z,99377.47
2018-05-01T18:06:41.748Z,99380.84
2018-05-01T18:09:11.386Z,99381.50
2018-05-01T18:11:41.029Z,99389.06
2018-05-01T18:14:10.658Z,99400.94
2018-05-01T18:16:40.247Z,99408.64
2018-05-01T18:19:09.855Z,99416.34
2018-05-01T18:21:39.492Z,99421.91
2018-05-01T18:24:09.152Z,99419.72
2018-05-01T18:26:38.776Z,99422.55
2018-05-01T18:29:08.400Z,99427.02
2018-05-01T18:31:38.072Z,99422.80
2018-05-01T18:34:07.724Z,99422.77
2018-05-01T18:36:37.346Z,99422.99
2018-05-01T18:39:06.453Z,99436.83
2018-05-01T18:41:36.102Z,99433.03
2018-05-01T18:44:06.068Z,99442.59
2018-05-01T18:46:35.739Z,99447.83
2018-05-01T18:49:05.373Z,99449.73
2018-05-01T18:51:35.114Z,99451.25
2018-05-01T18:54:04.774Z,99453.09
2018-05-01T18:56:34.477Z,99475.08
2018-05-01T18:59:04.107Z,99475.21
2018-05-01T19:01:33.779Z,99479.81
2018-05-01T19:04:03.417Z,99490.94
2018-05-01T19:06:33.186Z,99491.24
2018-05-01T19:09:02.859Z,99504.23
2018-05-01T19:11:31.990Z,99498.13
2018-05-01T19:14:01.387Z,99501.00
2018-05-01T19:16:31.075Z,99496.72
2018-05-01T19:19:00.843Z,99501.32
2018-05-01T19:21:30.501Z,99499.48
2018-05-01T19:24:00.171Z,99500.97
2018-05-01T19:26:29.804Z,99507.41
2018-05-01T19:28:59.442Z,99514.45
2018-05-01T19:31:29.123Z,99517.72
2018-05-01T19:33:58.768Z,99521.30
2018-05-01T19:36:28.416Z,99517.52
2018-05-01T19:38:58.091Z,99524.31
2018-05-01T19:41:27.738Z,99532.91
2018-05-01T19:43:57.410Z,99534.96
2018-05-01T19:46:27.095Z,99539.32
2018-05-01T19:48:56.719Z,99541.24
2018-05-01T19:51:27.211Z,99542.66
2018-05-01T19:53:56.874Z,99549.42
2018-05-01T19:56:27.115Z,99553.00
2018-05-01T19:58:56.934Z,99552.80
2018-05-01T20:01:26.624Z,99556.92
2018-05-01T20:03:56.260Z,99555.89
2018-05-01T20:06:25.899Z,99558.91
2018-05-01T20:08:55.651Z,99558.17
2018-05-01T20:11:26.262Z,99563.11
2018-05-01T20:13:55.921Z,99559.84
2018-05-01T20:16:25.588Z,99560.73
2018-05-01T20:18:55.230Z,99568.16
2018-05-01T20:21:24.850Z,99574.66
2018-05-01T20:23:54.522Z,99578.97
2018-05-01T20:26:24.160Z,99578.23
2018-05-01T20:28:53.799Z,99580.11
2018-05-01T20:31:23.463Z,99574.57
2018-05-01T20:38:05.309Z,99575.64
2018-05-01T20:40:34.951Z,99580.97
2018-05-01T20:43:04.593Z,99585.52
2018-05-01T20:45:34.271Z,99588.36
2018-05-01T20:48:03.638Z,99591.38
2018-05-01T20:50:33.288Z,99596.76
2018-05-01T20:53:02.978Z,99600.06
2018-05-01T20:55:32.635Z,99598.36
2018-05-01T20:58:02.275Z,99603.41
2018-05-01T21:00:31.943Z,99611.27
2018-05-01T21:03:01.582Z,99620.71
2018-05-01T21:05:31.280Z,99623.09
2018-05-01T21:08:00.960Z,99624.91
2018-05-01T21:10:30.594Z,99631.72
2018-05-01T21:13:00.268Z,99638.02
2018-05-01T21:15:29.637Z,99635.19
2018-05-01T21:17:59.267Z,99644.36
2018-05-01T21:20:28.937Z,99648.53
2018-05-01T21:22:58.577Z,99644.23
2018-05-01T21:25:28.243Z,99641.27
2018-05-01T21:27:57.903Z,99644.20
2018-05-01T21:30:27.531Z,99644.94
2018-05-01T21:32:57.179Z,99652.22
2018-05-01T21:35:26.843Z,99653.03
2018-05-01T21:37:56.182Z,99659.74
2018-05-01T21:40:25.819Z,99669.62
2018-05-01T21:42:55.557Z,99681.41
2018-05-01T21:45:25.346Z,99683.20
2018-05-01T21:47:54.994Z,99687.55
2018-05-01T21:50:24.668Z,99679.53
2018-05-01T21:52:54.289Z,99676.43
2018-05-01T21:55:23.936Z,99674.62
2018-05-01T21:57:53.605Z,99672.26
2018-05-01T22:00:23.232Z,99682.04
2018-05-01T22:02:52.591Z,99690.33
2018-05-01T22:05:22.323Z,99691.80
2018-05-01T22:07:51.951Z,99695.39
2018-05-01T22:10:21.295Z,99694.26
2018-05-01T22:12:50.922Z,99698.72
2018-05-01T22:15:20.551Z,99696.29
2018-05-01T22:17:50.167Z,99700.27
2018-05-01T22:20:19.832Z,99701.50
2018-05-01T22:22:49.455Z,99705.06
2018-05-01T22:25:19.084Z,99710.23
2018-05-01T22:27:48.747Z,99709.02
2018-05-01T22:30:18.369Z,99706.45
2018-05-01T22:32:48.083Z,99697.53
2018-05-01T22:35:17.714Z,99702.75
2018-05-01T22:37:47.325Z,99701.81
2018-05-01T22:40:16.991Z,99698.63
2018-05-01T22:42:46.602Z,99702.08
2018-05-01T22:45:16.209Z,99699.03
2018-05-01T22:47:45.864Z,99711.00
2018-05-01T22:50:15.474Z,99713.45
2018-05-01T22:52:45.100Z,99714.27
2018-05-01T22:55:14.772Z,99713.83
2018-05-01T22:57:44.400Z,99713.70
2018-05-01T23:00:13.468Z,99710.16
2018-05-01T23:02:42.658Z,99710.85
2018-05-01T23:05:12.276Z,99709.88
2018-05-01T23:07:41.913Z,99721.80
2018-05-01T23:10:11.576Z,99721.44
2018-05-01T23:12:41.198Z,99723.67
2018-05-01T23:15:10.835Z,99732.55
2018-05-01T23:17:40.500Z,99728.77
2018-05-01T23:20:10.148Z,99734.02
2018-05-01T23:22:39.793Z,99727.59
2018-05-01T23:25:09.459Z,99734.55
2018-05-01T23:27:39.119Z,99738.70
2018-05-01T23:30:08.759Z,99742.09
2018-05-01T23:32:38.152Z,99747.67
2018-05-01T23:35:07.762Z,99759.64
2018-05-01T23:37:37.105Z,99763.76
2018-05-01T23:40:06.775Z,99766.48
2018-05-01T23:42:36.401Z,99769.05
2018-05-01T23:45:06.024Z,99771.66
2018-05-01T23:47:35.698Z,99773.61
2018-05-01T23:50:05.088Z,99778.02
2018-05-01T23:52:34.711Z,99779.19
2018-05-01T23:55:04.398Z,99784.69
2018-05-01T23:57:34.040Z,99793.73
